sensor_id;sensor_type;location;lat;lon;timestamp;pressure;altitude;pressure_sealevel;temperature;humidity
62617;BME280;62539;51.190;6.808;2023-03-04T00:00:13;102222.44;;;18.99;49.16
62617;BME280;62539;51.190;6.808;2023-03-04T00:02:39;102225.06;;;18.95;49.16
62617;BME280;62539;51.190;6.808;2023-03-04T00:05:05;102228.59;;;18.93;49.38
62617;BME280;62539;51.190;6.808;2023-03-04T00:07:31;102223.38;;;18.90;49.10
62617;BME280;62539;51.190;6.808;2023-03-04T00:09:56;102226.03;;;18.87;49.34
62617;BME280;62539;51.190;6.808;2023-03-04T00:12:21;102228.66;;;18.87;49.37
62617;BME280;62539;51.190;6.808;2023-03-04T00:14:47;102229.59;;;18.84;49.33
62617;BME280;62539;51.190;6.808;2023-03-04T00:17:12;102228.75;;;18.82;49.34
62617;BME280;62539;51.190;6.808;2023-03-04T00:19:38;102231.38;;;18.80;49.47
62617;BME280;62539;51.190;6.808;2023-03-04T00:22:03;102229.66;;;18.78;49.46
62617;BME280;62539;51.190;6.808;2023-03-04T00:24:29;102227.03;;;18.76;49.55
62617;BME280;62539;51.190;6.808;2023-03-04T00:26:55;102234.94;;;18.76;49.46
62617;BME280;62539;51.190;6.808;2023-03-04T00:29:20;102228.81;;;18.74;49.55
62617;BME280;62539;51.190;6.808;2023-03-04T00:31:46;102227.97;;;18.74;49.55
62617;BME280;62539;51.190;6.808;2023-03-04T00:34:12;102220.06;;;18.72;49.33
62617;BME280;62539;51.190;6.808;2023-03-04T00:36:37;102211.34;;;18.70;49.44
62617;BME280;62539;51.190;6.808;2023-03-04T00:39:03;102214.84;;;18.69;49.71
62617;BME280;62539;51.190;6.808;2023-03-04T00:41:28;102210.53;;;18.66;49.68
62617;BME280;62539;51.190;6.808;2023-03-04T00:43:53;102207.00;;;18.66;49.87
62617;BME280;62539;51.190;6.808;2023-03-04T00:46:19;102201.78;;;18.64;49.58
62617;BME280;62539;51.190;6.808;2023-03-04T00:48:44;102204.41;;;18.63;49.70
62617;BME280;62539;51.190;6.808;2023-03-04T00:51:09;102200.06;;;18.62;49.57
62617;BME280;62539;51.190;6.808;2023-03-04T00:53:35;102200.09;;;18.59;49.70
62617;BME280;62539;51.190;6.808;2023-03-04T00:56:00;102201.88;;;18.58;49.91
62617;BME280;62539;51.190;6.808;2023-03-04T00:58:26;102197.50;;;18.56;49.68
62617;BME280;62539;51.190;6.808;2023-03-04T01:00:51;102199.31;;;18.54;49.87
62617;BME280;62539;51.190;6.808;2023-03-04T01:03:16;102201.94;;;18.54;49.57
62617;BME280;62539;51.190;6.808;2023-03-04T01:05:42;102197.56;;;18.53;49.60
62617;BME280;62539;51.190;6.808;2023-03-04T01:08:07;102200.19;;;18.51;49.82
62617;BME280;62539;51.190;6.808;2023-03-04T01:10:33;102200.22;;;18.49;49.59
62617;BME280;62539;51.190;6.808;2023-03-04T01:12:58;102191.50;;;18.47;49.95
62617;BME280;62539;51.190;6.808;2023-03-04T01:15:24;102191.50;;;18.46;49.59
62617;BME280;62539;51.190;6.808;2023-03-04T01:17:49;102194.16;;;18.44;49.90
62617;BME280;62539;51.190;6.808;2023-03-04T01:20:15;102187.16;;;18.43;49.76
62617;BME280;62539;51.190;6.808;2023-03-04T01:22:41;102188.91;;;18.43;49.81
62617;BME280;62539;51.190;6.808;2023-03-04T01:25:06;102187.16;;;18.42;49.90
62617;BME280;62539;51.190;6.808;2023-03-04T01:27:32;102188.06;;;18.41;49.80
62617;BME280;62539;51.190;6.808;2023-03-04T01:29:58;102188.09;;;18.39;49.75
62617;BME280;62539;51.190;6.808;2023-03-04T01:32:23;102188.09;;;18.38;50.01
62617;BME280;62539;51.190;6.808;2023-03-04T01:34:48;102183.72;;;18.36;49.92
62617;BME280;62539;51.190;6.808;2023-03-04T01:37:14;102183.75;;;18.35;49.91
62617;BME280;62539;51.190;6.808;2023-03-04T01:39:39;102174.13;;;18.34;49.90
62617;BME280;62539;51.190;6.808;2023-03-04T01:42:06;102171.50;;;18.32;50.02
62617;BME280;62539;51.190;6.808;2023-03-04T01:44:42;102170.66;;;18.30;49.93
62617;BME280;62539;51.190;6.808;2023-03-04T01:47:09;102173.31;;;18.29;49.90
62617;BME280;62539;51.190;6.808;2023-03-04T01:49:35;102165.44;;;18.27;50.13
62617;BME280;62539;51.190;6.808;2023-03-04T01:52:00;102172.47;;;18.27;50.17
62617;BME280;62539;51.190;6.808;2023-03-04T01:54:26;102160.22;;;18.24;50.04
62617;BME280;62539;51.190;6.808;2023-03-04T01:56:51;102163.72;;;18.25;49.96
62617;BME280;62539;51.190;6.808;2023-03-04T02:01:46;102157.66;;;18.19;50.14
62617;BME280;62539;51.190;6.808;2023-03-04T02:04:19;102157.66;;;18.19;50.04
62617;BME280;62539;51.190;6.808;2023-03-04T02:06:48;102154.16;;;18.17;50.00
62617;BME280;62539;51.190;6.808;2023-03-04T02:09:16;102155.06;;;18.16;50.13
62617;BME280;62539;51.190;6.808;2023-03-04T02:11:43;102155.06;;;18.15;50.17
62617;BME280;62539;51.190;6.808;2023-03-04T02:14:10;102155.06;;;18.15;50.27
62617;BME280;62539;51.190;6.808;2023-03-04T02:16:36;102151.59;;;18.11;50.29
62617;BME280;62539;51.190;6.808;2023-03-04T02:19:52;102147.22;;;18.12;50.03
62617;BME280;62539;51.190;6.808;2023-03-04T02:22:04;102148.97;;;18.10;50.24
62617;BME280;62539;51.190;6.808;2023-03-04T02:24:35;102154.25;;;18.08;50.31
62617;BME280;62539;51.190;6.808;2023-03-04T02:27:05;102144.66;;;18.05;50.34
62617;BME280;62539;51.190;6.808;2023-03-04T02:29:30;102142.91;;;18.04;50.36
62617;BME280;62539;51.190;6.808;2023-03-04T02:31:56;102147.31;;;18.04;50.27
62617;BME280;62539;51.190;6.808;2023-03-04T02:34:30;102145.56;;;18.01;50.51
62617;BME280;62539;51.190;6.808;2023-03-04T02:36:58;102142.09;;;18.01;50.14
62617;BME280;62539;51.190;6.808;2023-03-04T02:39:33;102144.69;;;17.99;50.29
62617;BME280;62539;51.190;6.808;2023-03-04T02:42:03;102139.44;;;17.99;50.36
62617;BME280;62539;51.190;6.808;2023-03-04T02:44:32;102137.69;;;17.98;50.35
62617;BME280;62539;51.190;6.808;2023-03-04T02:46:59;102137.72;;;17.97;50.21
62617;BME280;62539;51.190;6.808;2023-03-04T02:49:27;102140.34;;;17.97;50.64
62617;BME280;62539;51.190;6.808;2023-03-04T02:52:03;102131.63;;;17.95;50.52
62617;BME280;62539;51.190;6.808;2023-03-04T02:54:30;102129.03;;;17.91;50.53
62617;BME280;62539;51.190;6.808;2023-03-04T02:56:58;102131.66;;;17.91;50.57
62617;BME280;62539;51.190;6.808;2023-03-04T02:59:26;102125.53;;;17.88;50.47
62617;BME280;62539;51.190;6.808;2023-03-04T03:01:52;102124.69;;;17.87;50.70
62617;BME280;62539;51.190;6.808;2023-03-04T03:04:19;102124.72;;;17.84;50.75
62617;BME280;62539;51.190;6.808;2023-03-04T03:06:46;102122.97;;;17.83;50.78
62617;BME280;62539;51.190;6.808;2023-03-04T03:09:11;102120.34;;;17.83;50.76
62617;BME280;62539;51.190;6.808;2023-03-04T03:11:37;102118.59;;;17.82;50.82
62617;BME280;62539;51.190;6.808;2023-03-04T03:14:03;102117.72;;;17.83;50.97
62617;BME280;62539;51.190;6.808;2023-03-04T03:16:28;102119.50;;;17.81;50.91
62617;BME280;62539;51.190;6.808;2023-03-04T03:18:54;102109.84;;;17.82;51.01
62617;BME280;62539;51.190;6.808;2023-03-04T03:21:19;102114.25;;;17.81;51.04
62617;BME280;62539;51.190;6.808;2023-03-04T03:23:45;102111.59;;;17.83;50.99
62617;BME280;62539;51.190;6.808;2023-03-04T03:26:10;102104.63;;;17.80;50.90
62617;BME280;62539;51.190;6.808;2023-03-04T03:28:36;102103.75;;;17.81;51.04
62617;BME280;62539;51.190;6.808;2023-03-04T03:31:01;102107.25;;;17.80;50.89
62617;BME280;62539;51.190;6.808;2023-03-04T03:33:26;102110.72;;;17.81;50.96
62617;BME280;62539;51.190;6.808;2023-03-04T03:35:52;102116.00;;;17.79;50.94
62617;BME280;62539;51.190;6.808;2023-03-04T03:38:17;102109.03;;;17.78;51.01
62617;BME280;62539;51.190;6.808;2023-03-04T03:40:43;102106.41;;;17.78;51.18
62617;BME280;62539;51.190;6.808;2023-03-04T03:43:08;102106.41;;;17.76;50.88
62617;BME280;62539;51.190;6.808;2023-03-04T03:45:35;102108.16;;;17.76;51.10
62617;BME280;62539;51.190;6.808;2023-03-04T03:48:00;102105.53;;;17.74;51.18
62617;BME280;62539;51.190;6.808;2023-03-04T03:50:25;102101.19;;;17.73;50.98
62617;BME280;62539;51.190;6.808;2023-03-04T03:52:53;102095.06;;;17.73;50.92
62617;BME280;62539;51.190;6.808;2023-03-04T03:55:18;102093.34;;;17.72;51.07
62617;BME280;62539;51.190;6.808;2023-03-04T03:57:43;102102.09;;;17.69;51.01
62617;BME280;62539;51.190;6.808;2023-03-04T04:00:09;102099.47;;;17.69;51.15
62617;BME280;62539;51.190;6.808;2023-03-04T04:02:35;102101.25;;;17.69;51.08
62617;BME280;62539;51.190;6.808;2023-03-04T04:05:01;102105.59;;;17.68;51.26
62617;BME280;62539;51.190;6.808;2023-03-04T04:07:26;102102.13;;;17.68;51.24
62617;BME280;62539;51.190;6.808;2023-03-04T04:09:51;102100.38;;;17.67;51.05
62617;BME280;62539;51.190;6.808;2023-03-04T04:12:18;102102.13;;;17.66;51.11
62617;BME280;62539;51.190;6.808;2023-03-04T04:14:44;102096.91;;;17.65;50.94
62617;BME280;62539;51.190;6.808;2023-03-04T04:17:10;102103.00;;;17.65;51.05
62617;BME280;62539;51.190;6.808;2023-03-04T04:19:36;102095.16;;;17.63;51.22
62617;BME280;62539;51.190;6.808;2023-03-04T04:22:02;102097.78;;;17.63;51.17
62617;BME280;62539;51.190;6.808;2023-03-04T04:24:28;102097.78;;;17.62;51.08
62617;BME280;62539;51.190;6.808;2023-03-04T04:26:53;102096.06;;;17.61;51.30
62617;BME280;62539;51.190;6.808;2023-03-04T04:29:19;102092.56;;;17.60;51.16
62617;BME280;62539;51.190;6.808;2023-03-04T04:31:45;102092.56;;;17.60;51.00
62617;BME280;62539;51.190;6.808;2023-03-04T04:34:10;102086.47;;;17.58;50.99
62617;BME280;62539;51.190;6.808;2023-03-04T04:36:35;102089.97;;;17.57;51.01
62617;BME280;62539;51.190;6.808;2023-03-04T04:39:02;102083.00;;;17.56;51.09
62617;BME280;62539;51.190;6.808;2023-03-04T04:41:30;102098.72;;;17.56;51.33
62617;BME280;62539;51.190;6.808;2023-03-04T04:44:00;102094.38;;;17.55;50.97
62617;BME280;62539;51.190;6.808;2023-03-04T04:46:25;102092.63;;;17.54;51.14
62617;BME280;62539;51.190;6.808;2023-03-04T04:48:51;102100.50;;;17.54;51.38
62617;BME280;62539;51.190;6.808;2023-03-04T04:51:16;102100.50;;;17.53;51.03
62617;BME280;62539;51.190;6.808;2023-03-04T04:53:42;102104.00;;;17.53;51.14
62617;BME280;62539;51.190;6.808;2023-03-04T04:56:14;102102.28;;;17.52;51.15
62617;BME280;62539;51.190;6.808;2023-03-04T04:58:44;102097.03;;;17.51;51.38
62617;BME280;62539;51.190;6.808;2023-03-04T05:01:10;102101.41;;;17.48;51.04
62617;BME280;62539;51.190;6.808;2023-03-04T05:03:36;102101.41;;;17.48;51.41
62617;BME280;62539;51.190;6.808;2023-03-04T05:06:05;102092.63;;;17.53;51.38
62617;BME280;62539;51.190;6.808;2023-03-04T05:08:32;102097.78;;;17.63;51.45
62617;BME280;62539;51.190;6.808;2023-03-04T05:10:58;102101.13;;;17.80;51.08
62617;BME280;62539;51.190;6.808;2023-03-04T05:13:23;102100.06;;;18.01;50.74
62617;BME280;62539;51.190;6.808;2023-03-04T05:15:53;102105.09;;;18.23;50.22
62617;BME280;62539;51.190;6.808;2023-03-04T05:18:21;102097.81;;;18.43;49.84
62617;BME280;62539;51.190;6.808;2023-03-04T05:20:51;102104.53;;;18.64;49.50
62617;BME280;62539;51.190;6.808;2023-03-04T05:23:18;102110.44;;;18.80;49.04
62617;BME280;62539;51.190;6.808;2023-03-04T05:25:44;102111.09;;;18.95;48.62
62617;BME280;62539;51.190;6.808;2023-03-04T05:28:10;102100.44;;;19.07;48.32
62617;BME280;62539;51.190;6.808;2023-03-04T05:30:40;102104.56;;;19.24;48.02
62617;BME280;62539;51.190;6.808;2023-03-04T05:33:08;102105.19;;;19.38;47.66
62617;BME280;62539;51.190;6.808;2023-03-04T05:35:35;102108.47;;;19.53;47.37
62617;BME280;62539;51.190;6.808;2023-03-04T05:38:07;102112.59;;;19.68;47.20
62617;BME280;62539;51.190;6.808;2023-03-04T05:40:35;102114.97;;;19.82;46.81
62617;BME280;62539;51.190;6.808;2023-03-04T05:43:00;102112.13;;;19.94;46.45
62617;BME280;62539;51.190;6.808;2023-03-04T05:45:26;102120.75;;;20.04;46.05
62617;BME280;62539;51.190;6.808;2023-03-04T05:50:24;102117.88;;;20.15;45.62
62617;BME280;62539;51.190;6.808;2023-03-04T05:52:50;102112.56;;;20.18;45.61
62617;BME280;62539;51.190;6.808;2023-03-04T05:55:16;102117.81;;;20.18;45.44
62617;BME280;62539;51.190;6.808;2023-03-04T05:57:43;102113.44;;;20.19;45.54
62617;BME280;62539;51.190;6.808;2023-03-04T06:00:09;102124.88;;;20.16;45.40
62617;BME280;62539;51.190;6.808;2023-03-04T06:02:37;102122.31;;;20.13;45.34
62617;BME280;62539;51.190;6.808;2023-03-04T06:05:03;102123.28;;;20.09;45.23
62617;BME280;62539;51.190;6.808;2023-03-04T06:07:29;102115.47;;;20.04;45.45
62617;BME280;62539;51.190;6.808;2023-03-04T06:09:55;102124.34;;;20.00;45.21
62617;BME280;62539;51.190;6.808;2023-03-04T06:12:20;102120.03;;;19.94;45.42
62617;BME280;62539;51.190;6.808;2023-03-04T06:14:46;102120.13;;;19.88;45.48
62617;BME280;62539;51.190;6.808;2023-03-04T06:17:11;102114.97;;;19.82;45.36
62617;BME280;62539;51.190;6.808;2023-03-04T06:19:37;102128.25;;;19.76;45.51
62617;BME280;62539;51.190;6.808;2023-03-04T06:22:03;102123.94;;;19.72;45.56
62617;BME280;62539;51.190;6.808;2023-03-04T06:24:29;102120.50;;;19.68;45.71
62617;BME280;62539;51.190;6.808;2023-03-04T06:26:55;102127.47;;;19.71;45.73
62617;BME280;62539;51.190;6.808;2023-03-04T06:29:21;102132.66;;;19.74;45.70
62617;BME280;62539;51.190;6.808;2023-03-04T06:31:46;102131.66;;;19.81;45.75
62617;BME280;62539;51.190;6.808;2023-03-04T06:34:11;102133.31;;;19.90;45.62
62617;BME280;62539;51.190;6.808;2023-03-04T06:36:37;102138.41;;;19.99;45.41
62617;BME280;62539;51.190;6.808;2023-03-04T06:39:06;102147.00;;;20.09;45.25
62617;BME280;62539;51.190;6.808;2023-03-04T06:41:33;102149.44;;;20.20;45.20
62617;BME280;62539;51.190;6.808;2023-03-04T06:43:58;102147.47;;;20.30;45.04
62617;BME280;62539;51.190;6.808;2023-03-04T06:46:24;102150.81;;;20.38;44.87
62617;BME280;62539;51.190;6.808;2023-03-04T06:48:49;102147.13;;;20.47;44.64
62617;BME280;62539;51.190;6.808;2023-03-04T06:51:15;102159.25;;;20.55;44.39
62617;BME280;62539;51.190;6.808;2023-03-04T06:53:41;102153.81;;;20.63;44.19
62617;BME280;62539;51.190;6.808;2023-03-04T06:56:08;102158.91;;;20.71;44.08
62617;BME280;62539;51.190;6.808;2023-03-04T06:58:36;102162.28;;;20.79;43.94
62617;BME280;62539;51.190;6.808;2023-03-04T07:03:36;102158.69;;;20.83;43.63
62617;BME280;62539;51.190;6.808;2023-03-04T07:06:01;102156.94;;;20.82;43.58
62617;BME280;62539;51.190;6.808;2023-03-04T07:08:27;102161.38;;;20.80;43.76
62617;BME280;62539;51.190;6.808;2023-03-04T07:10:52;102157.06;;;20.78;43.69
62617;BME280;62539;51.190;6.808;2023-03-04T07:13:18;102158.84;;;20.74;43.60
62617;BME280;62539;51.190;6.808;2023-03-04T07:15:43;102159.81;;;20.70;43.66
62617;BME280;62539;51.190;6.808;2023-03-04T07:18:08;102161.69;;;20.65;43.75
62617;BME280;62539;51.190;6.808;2023-03-04T07:20:34;102167.94;;;20.61;43.90
62617;BME280;62539;51.190;6.808;2023-03-04T07:22:59;102162.72;;;20.58;43.78
62617;BME280;62539;51.190;6.808;2023-03-04T07:25:25;102167.94;;;20.61;43.73
62617;BME280;62539;51.190;6.808;2023-03-04T07:27:50;102169.59;;;20.65;43.96
62617;BME280;62539;51.190;6.808;2023-03-04T07:30:16;102169.53;;;20.68;43.93
62617;BME280;62539;51.190;6.808;2023-03-04T07:32:41;102169.41;;;20.74;43.83
62617;BME280;62539;51.190;6.808;2023-03-04T07:35:07;102178.13;;;20.79;43.84
62617;BME280;62539;51.190;6.808;2023-03-04T07:37:32;102172.69;;;20.85;43.58
62617;BME280;62539;51.190;6.808;2023-03-04T07:39:58;102177.00;;;20.91;43.46
62617;BME280;62539;51.190;6.808;2023-03-04T07:42:23;102176.81;;;20.99;43.37
62617;BME280;62539;51.190;6.808;2023-03-04T07:44:48;102175.75;;;21.06;43.42
62617;BME280;62539;51.190;6.808;2023-03-04T07:47:14;102174.72;;;21.13;43.24
62617;BME280;62539;51.190;6.808;2023-03-04T07:49:39;102179.91;;;21.18;43.15
62617;BME280;62539;51.190;6.808;2023-03-04T07:52:05;102176.25;;;21.22;43.46
62617;BME280;62539;51.190;6.808;2023-03-04T07:54:30;102189.44;;;21.24;42.68
62617;BME280;62539;51.190;6.808;2023-03-04T07:56:56;102179.78;;;21.23;42.64
62617;BME280;62539;51.190;6.808;2023-03-04T07:59:22;102179.81;;;21.21;42.88
62617;BME280;62539;51.190;6.808;2023-03-04T08:01:47;102184.28;;;21.19;42.96
62617;BME280;62539;51.190;6.808;2023-03-04T08:04:13;102186.09;;;21.15;42.90
62617;BME280;62539;51.190;6.808;2023-03-04T08:06:40;102189.72;;;21.11;42.76
62617;BME280;62539;51.190;6.808;2023-03-04T08:09:07;102191.59;;;21.06;42.74
62617;BME280;62539;51.190;6.808;2023-03-04T08:11:35;102191.66;;;21.03;42.98
62617;BME280;62539;51.190;6.808;2023-03-04T08:14:02;102192.63;;;21.00;42.93
62617;BME280;62539;51.190;6.808;2023-03-04T08:16:28;102190.81;;;21.01;42.92
62617;BME280;62539;51.190;6.808;2023-03-04T08:18:56;102193.41;;;21.04;43.21
62617;BME280;62539;51.190;6.808;2023-03-04T08:21:23;102188.06;;;21.07;43.11
62617;BME280;62539;51.190;6.808;2023-03-04T08:23:50;102188.81;;;21.12;43.08
62617;BME280;62539;51.190;6.808;2023-03-04T08:28:46;102188.56;;;21.23;42.74
62617;BME280;62539;51.190;6.808;2023-03-04T08:31:13;102191.03;;;21.31;42.63
62617;BME280;62539;51.190;6.808;2023-03-04T08:33:39;102190.88;;;21.37;42.68
62617;BME280;62539;51.190;6.808;2023-03-04T08:36:05;102189.78;;;21.46;42.36
62617;BME280;62539;51.190;6.808;2023-03-04T08:38:31;102185.22;;;21.53;42.58
62617;BME280;62539;51.190;6.808;2023-03-04T08:40:57;102192.09;;;21.60;42.37
62617;BME280;62539;51.190;6.808;2023-03-04T08:43:24;102193.78;;;21.64;42.29
62617;BME280;62539;51.190;6.808;2023-03-04T08:45:51;102193.69;;;21.67;42.18
62617;BME280;62539;51.190;6.808;2023-03-04T08:48:18;102190.16;;;21.68;42.11
62617;BME280;62539;51.190;6.808;2023-03-04T08:50:45;102186.59;;;21.69;41.93
62617;BME280;62539;51.190;6.808;2023-03-04T08:53:12;102193.63;;;21.70;42.03
62617;BME280;62539;51.190;6.808;2023-03-04T08:55:39;102198.91;;;21.70;41.87
62617;BME280;62539;51.190;6.808;2023-03-04T08:58:07;102191.88;;;21.69;42.11
62617;BME280;62539;51.190;6.808;2023-03-04T09:00:35;102188.41;;;21.67;42.13
62617;BME280;62539;51.190;6.808;2023-03-04T09:03:03;102182.31;;;21.65;41.99
62617;BME280;62539;51.190;6.808;2023-03-04T09:05:30;102183.16;;;21.66;42.02
62617;BME280;62539;51.190;6.808;2023-03-04T09:07:56;102186.59;;;21.69;42.46
62617;BME280;62539;51.190;6.808;2023-03-04T09:10:22;102182.97;;;21.73;42.21
62617;BME280;62539;51.190;6.808;2023-03-04T09:12:49;102189.84;;;21.81;42.66
62617;BME280;62539;51.190;6.808;2023-03-04T09:15:16;102191.34;;;21.90;42.13
62617;BME280;62539;51.190;6.808;2023-03-04T09:17:41;102185.88;;;21.97;42.38
62617;BME280;62539;51.190;6.808;2023-03-04T09:20:08;102183.91;;;22.06;42.21
62617;BME280;62539;51.190;6.808;2023-03-04T09:22:36;102190.78;;;22.11;42.12
62617;BME280;62539;51.190;6.808;2023-03-04T09:25:03;102187.22;;;22.14;42.03
62617;BME280;62539;51.190;6.808;2023-03-04T09:27:28;102187.16;;;22.15;41.97
62617;BME280;62539;51.190;6.808;2023-03-04T09:29:54;102190.69;;;22.16;41.99
62617;BME280;62539;51.190;6.808;2023-03-04T09:32:19;102187.22;;;22.14;42.08
62617;BME280;62539;51.190;6.808;2023-03-04T09:34:45;102189.97;;;22.09;41.96
62617;BME280;62539;51.190;6.808;2023-03-04T09:37:10;102184.75;;;22.06;42.22
62617;BME280;62539;51.190;6.808;2023-03-04T09:39:36;102187.53;;;22.01;42.03
62617;BME280;62539;51.190;6.808;2023-03-04T09:42:03;102184.16;;;21.96;42.57
62617;BME280;62539;51.190;6.808;2023-03-04T09:44:40;102185.16;;;21.91;43.00
62617;BME280;62539;51.190;6.808;2023-03-04T09:47:12;102190.50;;;21.89;43.48
62617;BME280;62539;51.190;6.808;2023-03-04T09:49:54;102180.78;;;21.90;43.72
62617;BME280;62539;51.190;6.808;2023-03-04T09:52:43;102184.19;;;21.95;43.81
62617;BME280;62539;51.190;6.808;2023-03-04T09:55:37;102181.34;;;22.02;44.13
62617;BME280;62539;51.190;6.808;2023-03-04T10:01:06;102180.09;;;22.16;43.93
62617;BME280;62539;51.190;6.808;2023-03-04T10:03:58;102178.13;;;22.24;43.66
62617;BME280;62539;51.190;6.808;2023-03-04T10:06:30;102179.75;;;22.28;43.81
62617;BME280;62539;51.190;6.808;2023-03-04T10:09:08;102177.94;;;22.30;43.17
62617;BME280;62539;51.190;6.808;2023-03-04T10:11:47;102180.53;;;22.32;43.15
62617;BME280;62539;51.190;6.808;2023-03-04T10:14:32;102175.03;;;22.40;42.89
62617;BME280;62539;51.190;6.808;2023-03-04T10:17:16;102175.13;;;22.37;42.84
62617;BME280;62539;51.190;6.808;2023-03-04T10:19:51;102172.59;;;22.32;42.52
62617;BME280;62539;51.190;6.808;2023-03-04T10:22:27;102169.09;;;22.31;42.95
62617;BME280;62539;51.190;6.808;2023-03-04T10:25:09;102164.75;;;22.29;43.21
62617;BME280;62539;51.190;6.808;2023-03-04T10:27:43;102166.47;;;22.31;43.29
62617;BME280;62539;51.190;6.808;2023-03-04T10:30:21;102161.13;;;22.33;43.02
62617;BME280;62539;51.190;6.808;2023-03-04T10:32:48;102162.00;;;22.34;42.73
62617;BME280;62539;51.190;6.808;2023-03-04T10:35:13;102159.75;;;22.51;42.34
62617;BME280;62539;51.190;6.808;2023-03-04T10:37:44;102159.66;;;22.54;42.18
62617;BME280;62539;51.190;6.808;2023-03-04T10:40:21;102150.81;;;22.55;42.57
62617;BME280;62539;51.190;6.808;2023-03-04T10:42:50;102156.97;;;22.56;43.04
62617;BME280;62539;51.190;6.808;2023-03-04T10:45:25;102158.84;;;22.52;42.70
62617;BME280;62539;51.190;6.808;2023-03-04T10:47:55;102149.13;;;22.53;42.66
62617;BME280;62539;51.190;6.808;2023-03-04T10:50:24;102153.47;;;22.55;42.32
62617;BME280;62539;51.190;6.808;2023-03-04T10:52:52;102145.38;;;22.60;42.37
62617;BME280;62539;51.190;6.808;2023-03-04T10:55:43;102147.00;;;22.66;42.16
62617;BME280;62539;51.190;6.808;2023-03-04T10:58:14;102149.47;;;22.72;42.08
62617;BME280;62539;51.190;6.808;2023-03-04T11:00:43;102144.88;;;22.77;42.10
62617;BME280;62539;51.190;6.808;2023-03-04T11:06:17;102139.41;;;22.83;42.14
62617;BME280;62539;51.190;6.808;2023-03-04T11:08:42;102136.78;;;22.82;41.91
62617;BME280;62539;51.190;6.808;2023-03-04T11:11:30;102141.28;;;22.80;42.12
62617;BME280;62539;51.190;6.808;2023-03-04T11:14:24;102136.97;;;22.75;41.95
62617;BME280;62539;51.190;6.808;2023-03-04T11:16:55;102136.31;;;22.69;41.71
62617;BME280;62539;51.190;6.808;2023-03-04T11:19:28;102138.25;;;22.64;41.66
62617;BME280;62539;51.190;6.808;2023-03-04T11:22:00;102127.84;;;22.57;42.28
62617;BME280;62539;51.190;6.808;2023-03-04T11:24:28;102137.59;;;22.55;42.61
62617;BME280;62539;51.190;6.808;2023-03-04T11:27:14;102126.41;;;22.45;41.55
62617;BME280;62539;51.190;6.808;2023-03-04T11:33:26;102123.66;;;22.50;41.19
62617;BME280;62539;51.190;6.808;2023-03-04T11:39:26;102119.38;;;22.74;40.84
62617;BME280;62539;51.190;6.808;2023-03-04T11:42:27;102113.88;;;22.82;40.85
62617;BME280;62539;51.190;6.808;2023-03-04T11:45:13;102114.59;;;22.87;40.49
62617;BME280;62539;51.190;6.808;2023-03-04T11:53:03;102101.09;;;22.95;40.79
62617;BME280;62539;51.190;6.808;2023-03-04T11:55:58;102096.88;;;22.89;41.00
62617;BME280;62539;51.190;6.808;2023-03-04T12:10:23;102080.78;;;22.69;41.53
62617;BME280;62539;51.190;6.808;2023-03-04T12:21:56;102067.31;;;22.48;41.85
62617;BME280;62539;51.190;6.808;2023-03-04T12:24:53;102054.09;;;22.48;42.12
62617;BME280;62539;51.190;6.808;2023-03-04T12:37:14;102051.47;;;22.75;41.99
62617;BME280;62539;51.190;6.808;2023-03-04T12:42:29;102038.88;;;22.83;41.62
62617;BME280;62539;51.190;6.808;2023-03-04T12:45:22;102039.78;;;22.82;41.45
62617;BME280;62539;51.190;6.808;2023-03-04T12:48:05;102034.41;;;22.85;41.54
62617;BME280;62539;51.190;6.808;2023-03-04T12:50:51;102023.75;;;22.87;41.46
62617;BME280;62539;51.190;6.808;2023-03-04T12:53:48;102021.88;;;22.90;41.27
62617;BME280;62539;51.190;6.808;2023-03-04T12:56:36;102026.19;;;22.93;41.61
62617;BME280;62539;51.190;6.808;2023-03-04T12:59:02;102019.13;;;22.94;41.43
62617;BME280;62539;51.190;6.808;2023-03-04T13:01:40;102013.06;;;22.90;41.45
62617;BME280;62539;51.190;6.808;2023-03-04T13:04:34;102021.97;;;22.87;41.68
62617;BME280;62539;51.190;6.808;2023-03-04T13:07:13;102013.31;;;22.82;41.87
62617;BME280;62539;51.190;6.808;2023-03-04T13:10:12;102015.25;;;22.77;42.40
62617;BME280;62539;51.190;6.808;2023-03-04T13:17:55;102014.34;;;22.78;42.65
62617;BME280;62539;51.190;6.808;2023-03-04T13:20:43;102012.44;;;22.82;43.15
62617;BME280;62539;51.190;6.808;2023-03-04T13:25:48;102003.28;;;22.92;43.30
62617;BME280;62539;51.190;6.808;2023-03-04T13:28:35;101997.97;;;22.94;43.23
62617;BME280;62539;51.190;6.808;2023-03-04T13:31:16;102003.34;;;22.90;43.34
62617;BME280;62539;51.190;6.808;2023-03-04T13:33:48;101998.06;;;22.90;43.18
62617;BME280;62539;51.190;6.808;2023-03-04T13:37:12;102001.72;;;22.86;43.33
62617;BME280;62539;51.190;6.808;2023-03-04T13:44:55;101999.72;;;22.66;43.19
62617;BME280;62539;51.190;6.808;2023-03-04T13:47:29;101997.38;;;22.57;43.42
62617;BME280;62539;51.190;6.808;2023-03-04T13:50:23;101994.19;;;22.47;43.31
62617;BME280;62539;51.190;6.808;2023-03-04T13:52:50;101985.50;;;22.42;43.37
62617;BME280;62539;51.190;6.808;2023-03-04T13:58:33;101983.06;;;22.34;43.52
62617;BME280;62539;51.190;6.808;2023-03-04T14:01:00;101982.13;;;22.37;43.49
62617;BME280;62539;51.190;6.808;2023-03-04T14:03:30;101974.13;;;22.38;43.21
62617;BME280;62539;51.190;6.808;2023-03-04T14:06:28;101980.22;;;22.42;43.45
62617;BME280;62539;51.190;6.808;2023-03-04T14:08:55;101967.75;;;22.47;43.37
62617;BME280;62539;51.190;6.808;2023-03-04T14:11:37;101967.53;;;22.53;43.24
62617;BME280;62539;51.190;6.808;2023-03-04T14:14:10;101960.22;;;22.61;43.00
62617;BME280;62539;51.190;6.808;2023-03-04T14:16:44;101956.56;;;22.66;42.92
62617;BME280;62539;51.190;6.808;2023-03-04T14:19:17;101956.34;;;22.72;42.77